This is the latest recevied weather packets stored in our database for station/object IT9DBI-3. If no packets are shown the sender has not sent any weather packets the latest 10 day(s).
| Time | Temp. | Humidity | Pressure | Rain* | Wind** | Luminosity | Snow |
|---|---|---|---|---|---|---|---|
| 1788495320 | 31.11° C | 53% | 1015.6 hPa | - | - | - | - |
| 1788494119 | 30.56° C | 56% | 1015.8 hPa | - | - | - | - |
| 1788492918 | 31.11° C | 54% | 1015.6 hPa | - | - | - | - |
| 1788491717 | 30.56° C | 56% | 1015.5 hPa | - | - | - | - |
| 1788490515 | 30.56° C | 58% | 1015.6 hPa | - | - | - | - |
| 1788489314 | 30° C | 59% | 1015.6 hPa | - | - | - | - |
| 1788488113 | 30° C | 59% | 1015.7 hPa | - | - | - | - |
| 1788486912 | 30° C | 58% | 1015.6 hPa | - | - | - | - |
| 1788485710 | 30° C | 59% | 1015.7 hPa | - | - | - | - |
| 1788484509 | 30° C | 59% | 1015.5 hPa | - | - | - | - |
| 1788483308 | 30.56° C | 58% | 1015.3 hPa | - | - | - | - |
| 1788482107 | 30° C | 58% | 1015.4 hPa | - | - | - | - |
| 1788480905 | 31.11° C | 55% | 1015.5 hPa | - | - | - | - |
| 1788479732 | 31.67° C | 54% | 1015.6 hPa | - | - | - | - |
| 1788478503 | 31.11° C | 56% | 1015.8 hPa | - | - | - | - |
| 1788477301 | 31.67° C | 56% | 1015.8 hPa | - | - | - | - |
| 1788476290 | 29.44° C | 62% | 1016 hPa | - | - | - | - |
| 1788475088 | 31.11° C | 56% | 1015.9 hPa | - | - | - | - |
| 1788473887 | 30° C | 60% | 1016 hPa | - | - | - | - |
| 1788472686 | 32.22° C | 54% | 1015.8 hPa | - | - | - | - |
| 1788471485 | 30.56° C | 59% | 1016 hPa | - | - | - | - |
| 1788470283 | 31.67° C | 54% | 1015.9 hPa | - | - | - | - |
| 1788469082 | 32.22° C | 54% | 1015.8 hPa | - | - | - | - |
| 1788467881 | 33.33° C | 52% | 1015.8 hPa | - | - | - | - |
| 1788466679 | 33.33° C | 52% | 1015.7 hPa | - | - | - | - |
* Rain since midnight (hover to see other rain measurements)
** Current wind speed in m/s (hover to see current wind gust speed)